sensor_id;sensor_type;location;lat;lon;timestamp;P1;durP1;ratioP1;P2;durP2;ratioP2
23614;SDS011;11985;49.404;7.734;2023-05-13T00:00:55;2.90;;;2.28;;
23614;SDS011;11985;49.404;7.734;2023-05-13T00:05:56;4.50;;;2.50;;
23614;SDS011;11985;49.404;7.734;2023-05-13T00:10:59;5.28;;;2.50;;
23614;SDS011;11985;49.404;7.734;2023-05-13T00:16:01;3.88;;;2.67;;
23614;SDS011;11985;49.404;7.734;2023-05-13T00:21:03;6.30;;;3.90;;
23614;SDS011;11985;49.404;7.734;2023-05-13T00:26:06;3.83;;;2.72;;
23614;SDS011;11985;49.404;7.734;2023-05-13T00:31:07;5.03;;;2.53;;
23614;SDS011;11985;49.404;7.734;2023-05-13T00:36:10;4.25;;;2.90;;
23614;SDS011;11985;49.404;7.734;2023-05-13T00:41:13;5.18;;;2.92;;
23614;SDS011;11985;49.404;7.734;2023-05-13T00:46:15;7.85;;;3.47;;
23614;SDS011;11985;49.404;7.734;2023-05-13T00:51:16;5.63;;;3.85;;
23614;SDS011;11985;49.404;7.734;2023-05-13T00:56:20;8.05;;;5.55;;
23614;SDS011;11985;49.404;7.734;2023-05-13T01:01:23;4.80;;;3.80;;
23614;SDS011;11985;49.404;7.734;2023-05-13T01:06:35;6.05;;;3.90;;
23614;SDS011;11985;49.404;7.734;2023-05-13T01:11:46;7.00;;;3.60;;
23614;SDS011;11985;49.404;7.734;2023-05-13T01:16:54;5.85;;;4.00;;
23614;SDS011;11985;49.404;7.734;2023-05-13T01:22:05;10.38;;;4.82;;
23614;SDS011;11985;49.404;7.734;2023-05-13T01:27:11;6.47;;;4.40;;
23614;SDS011;11985;49.404;7.734;2023-05-13T01:32:14;7.00;;;4.90;;
23614;SDS011;11985;49.404;7.734;2023-05-13T01:37:18;8.63;;;4.78;;
23614;SDS011;11985;49.404;7.734;2023-05-13T01:42:21;6.32;;;4.97;;
23614;SDS011;11985;49.404;7.734;2023-05-13T01:47:23;8.18;;;4.43;;
23614;SDS011;11985;49.404;7.734;2023-05-13T01:52:26;9.70;;;5.28;;
23614;SDS011;11985;49.404;7.734;2023-05-13T01:57:27;11.50;;;5.60;;
23614;SDS011;11985;49.404;7.734;2023-05-13T02:02:29;8.57;;;6.07;;
23614;SDS011;11985;49.404;7.734;2023-05-13T02:07:32;7.50;;;5.82;;
23614;SDS011;11985;49.404;7.734;2023-05-13T02:12:33;9.45;;;6.18;;
23614;SDS011;11985;49.404;7.734;2023-05-13T02:17:35;8.80;;;6.70;;
23614;SDS011;11985;49.404;7.734;2023-05-13T02:22:38;12.15;;;7.45;;
23614;SDS011;11985;49.404;7.734;2023-05-13T02:27:40;18.95;;;8.85;;
23614;SDS011;11985;49.404;7.734;2023-05-13T02:32:41;15.88;;;8.50;;
23614;SDS011;11985;49.404;7.734;2023-05-13T02:37:44;16.23;;;10.00;;
23614;SDS011;11985;49.404;7.734;2023-05-13T02:42:46;15.30;;;10.15;;
23614;SDS011;11985;49.404;7.734;2023-05-13T02:47:48;12.82;;;8.23;;
23614;SDS011;11985;49.404;7.734;2023-05-13T02:52:50;11.93;;;7.65;;
23614;SDS011;11985;49.404;7.734;2023-05-13T02:57:52;17.08;;;7.70;;
23614;SDS011;11985;49.404;7.734;2023-05-13T03:02:55;12.00;;;7.47;;
23614;SDS011;11985;49.404;7.734;2023-05-13T03:07:58;14.20;;;7.55;;
23614;SDS011;11985;49.404;7.734;2023-05-13T03:13:00;13.23;;;8.10;;
23614;SDS011;11985;49.404;7.734;2023-05-13T03:18:01;11.82;;;8.13;;
23614;SDS011;11985;49.404;7.734;2023-05-13T03:23:05;14.63;;;8.00;;
23614;SDS011;11985;49.404;7.734;2023-05-13T03:28:07;12.70;;;6.78;;
23614;SDS011;11985;49.404;7.734;2023-05-13T03:33:08;9.23;;;6.75;;
23614;SDS011;11985;49.404;7.734;2023-05-13T03:38:11;10.02;;;7.28;;
23614;SDS011;11985;49.404;7.734;2023-05-13T03:43:13;10.68;;;7.13;;
23614;SDS011;11985;49.404;7.734;2023-05-13T03:48:14;12.18;;;7.07;;
23614;SDS011;11985;49.404;7.734;2023-05-13T03:53:17;10.52;;;6.80;;
23614;SDS011;11985;49.404;7.734;2023-05-13T03:58:19;11.98;;;7.93;;
23614;SDS011;11985;49.404;7.734;2023-05-13T04:03:21;11.45;;;6.97;;
23614;SDS011;11985;49.404;7.734;2023-05-13T04:08:24;10.77;;;8.52;;
23614;SDS011;11985;49.404;7.734;2023-05-13T04:13:26;12.10;;;8.95;;
23614;SDS011;11985;49.404;7.734;2023-05-13T04:18:28;15.38;;;9.32;;
23614;SDS011;11985;49.404;7.734;2023-05-13T04:23:31;11.48;;;9.07;;
23614;SDS011;11985;49.404;7.734;2023-05-13T04:28:33;14.38;;;9.27;;
23614;SDS011;11985;49.404;7.734;2023-05-13T04:33:35;17.05;;;9.55;;
23614;SDS011;11985;49.404;7.734;2023-05-13T04:38:38;12.98;;;9.48;;
23614;SDS011;11985;49.404;7.734;2023-05-13T04:43:40;12.02;;;9.38;;
23614;SDS011;11985;49.404;7.734;2023-05-13T04:48:41;14.93;;;10.32;;
23614;SDS011;11985;49.404;7.734;2023-05-13T04:53:48;17.90;;;10.30;;
23614;SDS011;11985;49.404;7.734;2023-05-13T04:58:49;15.68;;;9.30;;
23614;SDS011;11985;49.404;7.734;2023-05-13T05:03:51;11.70;;;7.70;;
23614;SDS011;11985;49.404;7.734;2023-05-13T05:08:54;13.45;;;8.13;;
23614;SDS011;11985;49.404;7.734;2023-05-13T05:13:56;9.77;;;6.80;;
23614;SDS011;11985;49.404;7.734;2023-05-13T05:18:57;10.10;;;6.20;;
23614;SDS011;11985;49.404;7.734;2023-05-13T05:24:00;10.88;;;5.88;;
23614;SDS011;11985;49.404;7.734;2023-05-13T05:29:02;11.05;;;5.88;;
23614;SDS011;11985;49.404;7.734;2023-05-13T05:34:03;8.05;;;5.40;;
23614;SDS011;11985;49.404;7.734;2023-05-13T05:39:06;11.07;;;5.80;;
23614;SDS011;11985;49.404;7.734;2023-05-13T05:44:08;8.23;;;5.68;;
23614;SDS011;11985;49.404;7.734;2023-05-13T05:49:12;12.43;;;6.40;;
23614;SDS011;11985;49.404;7.734;2023-05-13T05:54:15;12.85;;;7.97;;
23614;SDS011;11985;49.404;7.734;2023-05-13T05:59:16;11.07;;;7.20;;
23614;SDS011;11985;49.404;7.734;2023-05-13T06:04:18;7.78;;;6.07;;
23614;SDS011;11985;49.404;7.734;2023-05-13T06:09:21;8.63;;;5.35;;
23614;SDS011;11985;49.404;7.734;2023-05-13T06:14:22;8.20;;;5.40;;
23614;SDS011;11985;49.404;7.734;2023-05-13T06:19:24;12.88;;;7.35;;
23614;SDS011;11985;49.404;7.734;2023-05-13T06:24:27;11.30;;;6.55;;
23614;SDS011;11985;49.404;7.734;2023-05-13T06:29:28;15.48;;;7.32;;
23614;SDS011;11985;49.404;7.734;2023-05-13T06:34:30;15.45;;;8.40;;
23614;SDS011;11985;49.404;7.734;2023-05-13T06:39:34;11.85;;;6.32;;
23614;SDS011;11985;49.404;7.734;2023-05-13T06:44:35;7.13;;;5.70;;
23614;SDS011;11985;49.404;7.734;2023-05-13T06:49:37;5.85;;;4.88;;
23614;SDS011;11985;49.404;7.734;2023-05-13T06:54:40;6.13;;;4.78;;
23614;SDS011;11985;49.404;7.734;2023-05-13T06:59:43;7.68;;;4.95;;
23614;SDS011;11985;49.404;7.734;2023-05-13T07:04:45;6.90;;;4.22;;
23614;SDS011;11985;49.404;7.734;2023-05-13T07:09:48;5.78;;;3.95;;
23614;SDS011;11985;49.404;7.734;2023-05-13T07:14:50;5.25;;;4.00;;
23614;SDS011;11985;49.404;7.734;2023-05-13T07:19:52;8.38;;;3.70;;
23614;SDS011;11985;49.404;7.734;2023-05-13T07:24:59;5.57;;;3.40;;
23614;SDS011;11985;49.404;7.734;2023-05-13T07:30:02;9.30;;;3.22;;
23614;SDS011;11985;49.404;7.734;2023-05-13T07:35:03;7.45;;;3.58;;
23614;SDS011;11985;49.404;7.734;2023-05-13T07:40:08;4.93;;;3.05;;
23614;SDS011;11985;49.404;7.734;2023-05-13T07:45:10;2.87;;;2.40;;
23614;SDS011;11985;49.404;7.734;2023-05-13T07:50:11;4.72;;;2.47;;
23614;SDS011;11985;49.404;7.734;2023-05-13T07:55:14;3.38;;;2.38;;
23614;SDS011;11985;49.404;7.734;2023-05-13T08:00:16;4.50;;;2.17;;
23614;SDS011;11985;49.404;7.734;2023-05-13T08:05:18;8.65;;;2.13;;
23614;SDS011;11985;49.404;7.734;2023-05-13T08:10:21;3.00;;;2.10;;
23614;SDS011;11985;49.404;7.734;2023-05-13T08:15:22;3.45;;;2.20;;
23614;SDS011;11985;49.404;7.734;2023-05-13T08:20:24;3.55;;;1.90;;
23614;SDS011;11985;49.404;7.734;2023-05-13T08:25:30;3.08;;;2.33;;
23614;SDS011;11985;49.404;7.734;2023-05-13T08:30:31;5.82;;;2.22;;
23614;SDS011;11985;49.404;7.734;2023-05-13T08:35:33;3.65;;;2.13;;
23614;SDS011;11985;49.404;7.734;2023-05-13T08:40:36;4.53;;;2.20;;
23614;SDS011;11985;49.404;7.734;2023-05-13T08:45:37;4.47;;;2.20;;
23614;SDS011;11985;49.404;7.734;2023-05-13T08:55:44;3.95;;;2.30;;
23614;SDS011;11985;49.404;7.734;2023-05-13T09:00:45;2.50;;;2.10;;
23614;SDS011;11985;49.404;7.734;2023-05-13T09:05:49;3.05;;;2.38;;
23614;SDS011;11985;49.404;7.734;2023-05-13T09:10:52;3.03;;;2.22;;
23614;SDS011;11985;49.404;7.734;2023-05-13T09:15:54;3.00;;;2.17;;
23614;SDS011;11985;49.404;7.734;2023-05-13T09:20:55;3.45;;;2.00;;
23614;SDS011;11985;49.404;7.734;2023-05-13T09:25:58;2.25;;;1.80;;
23614;SDS011;11985;49.404;7.734;2023-05-13T09:31:00;7.57;;;2.22;;
23614;SDS011;11985;49.404;7.734;2023-05-13T09:36:02;4.38;;;2.00;;
23614;SDS011;11985;49.404;7.734;2023-05-13T09:41:06;3.47;;;1.90;;
23614;SDS011;11985;49.404;7.734;2023-05-13T09:46:08;4.82;;;2.15;;
23614;SDS011;11985;49.404;7.734;2023-05-13T09:51:10;4.53;;;2.17;;
23614;SDS011;11985;49.404;7.734;2023-05-13T09:56:17;4.80;;;2.20;;
23614;SDS011;11985;49.404;7.734;2023-05-13T10:01:20;2.55;;;2.03;;
23614;SDS011;11985;49.404;7.734;2023-05-13T10:06:23;4.47;;;2.00;;
23614;SDS011;11985;49.404;7.734;2023-05-13T10:11:27;2.30;;;1.75;;
23614;SDS011;11985;49.404;7.734;2023-05-13T10:16:30;3.50;;;2.10;;
23614;SDS011;11985;49.404;7.734;2023-05-13T10:21:32;4.72;;;1.92;;
23614;SDS011;11985;49.404;7.734;2023-05-13T10:26:37;3.22;;;1.80;;
23614;SDS011;11985;49.404;7.734;2023-05-13T10:31:40;3.10;;;2.10;;
23614;SDS011;11985;49.404;7.734;2023-05-13T10:36:48;3.08;;;2.20;;
23614;SDS011;11985;49.404;7.734;2023-05-13T10:47:37;3.13;;;2.30;;
23614;SDS011;11985;49.404;7.734;2023-05-13T10:52:42;4.20;;;2.22;;
23614;SDS011;11985;49.404;7.734;2023-05-13T10:58:03;3.95;;;2.35;;
23614;SDS011;11985;49.404;7.734;2023-05-13T11:03:11;5.03;;;2.40;;
23614;SDS011;11985;49.404;7.734;2023-05-13T11:13:38;5.13;;;2.65;;
23614;SDS011;11985;49.404;7.734;2023-05-13T11:18:41;3.97;;;2.13;;
23614;SDS011;11985;49.404;7.734;2023-05-13T11:23:50;4.18;;;2.40;;
23614;SDS011;11985;49.404;7.734;2023-05-13T11:28:55;5.63;;;2.60;;
23614;SDS011;11985;49.404;7.734;2023-05-13T11:34:04;3.58;;;2.40;;
23614;SDS011;11985;49.404;7.734;2023-05-13T11:39:09;3.17;;;2.35;;
23614;SDS011;11985;49.404;7.734;2023-05-13T11:44:14;7.03;;;2.50;;
23614;SDS011;11985;49.404;7.734;2023-05-13T11:49:30;4.28;;;2.55;;
23614;SDS011;11985;49.404;7.734;2023-05-13T11:54:39;5.95;;;2.25;;
23614;SDS011;11985;49.404;7.734;2023-05-13T11:59:49;2.85;;;2.13;;
23614;SDS011;11985;49.404;7.734;2023-05-13T12:04:51;5.72;;;2.38;;
23614;SDS011;11985;49.404;7.734;2023-05-13T12:09:54;7.35;;;2.97;;
23614;SDS011;11985;49.404;7.734;2023-05-13T12:14:58;3.42;;;2.38;;
23614;SDS011;11985;49.404;7.734;2023-05-13T12:20:08;4.95;;;2.50;;
23614;SDS011;11985;49.404;7.734;2023-05-13T12:25:31;7.15;;;2.83;;
23614;SDS011;11985;49.404;7.734;2023-05-13T12:30:42;3.15;;;2.50;;
23614;SDS011;11985;49.404;7.734;2023-05-13T12:35:50;2.58;;;2.05;;
23614;SDS011;11985;49.404;7.734;2023-05-13T12:40:52;3.55;;;2.10;;
23614;SDS011;11985;49.404;7.734;2023-05-13T12:45:55;6.03;;;2.50;;
23614;SDS011;11985;49.404;7.734;2023-05-13T12:50:57;11.18;;;2.20;;
23614;SDS011;11985;49.404;7.734;2023-05-13T12:55:58;5.68;;;2.22;;
23614;SDS011;11985;49.404;7.734;2023-05-13T13:01:01;6.63;;;2.30;;
23614;SDS011;11985;49.404;7.734;2023-05-13T13:06:03;2.40;;;2.20;;
23614;SDS011;11985;49.404;7.734;2023-05-13T13:11:05;2.55;;;2.25;;
23614;SDS011;11985;49.404;7.734;2023-05-13T13:16:08;3.78;;;2.40;;
23614;SDS011;11985;49.404;7.734;2023-05-13T13:21:09;5.55;;;2.30;;
23614;SDS011;11985;49.404;7.734;2023-05-13T13:26:11;4.03;;;2.03;;
23614;SDS011;11985;49.404;7.734;2023-05-13T13:31:14;3.85;;;2.50;;
23614;SDS011;11985;49.404;7.734;2023-05-13T13:36:15;7.82;;;2.30;;
23614;SDS011;11985;49.404;7.734;2023-05-13T13:41:17;6.05;;;2.88;;
23614;SDS011;11985;49.404;7.734;2023-05-13T13:46:21;5.25;;;2.53;;
23614;SDS011;11985;49.404;7.734;2023-05-13T13:51:23;9.35;;;2.80;;
23614;SDS011;11985;49.404;7.734;2023-05-13T13:56:24;3.88;;;2.80;;
23614;SDS011;11985;49.404;7.734;2023-05-13T14:01:27;5.22;;;2.53;;
23614;SDS011;11985;49.404;7.734;2023-05-13T14:06:29;2.95;;;2.15;;
23614;SDS011;11985;49.404;7.734;2023-05-13T14:11:30;3.13;;;2.75;;
23614;SDS011;11985;49.404;7.734;2023-05-13T14:16:33;7.50;;;2.72;;
23614;SDS011;11985;49.404;7.734;2023-05-13T14:21:35;4.53;;;3.05;;
23614;SDS011;11985;49.404;7.734;2023-05-13T14:26:37;5.90;;;2.40;;
23614;SDS011;11985;49.404;7.734;2023-05-13T14:31:40;5.07;;;2.72;;
23614;SDS011;11985;49.404;7.734;2023-05-13T14:36:41;7.32;;;2.75;;
23614;SDS011;11985;49.404;7.734;2023-05-13T14:41:43;4.00;;;2.60;;
23614;SDS011;11985;49.404;7.734;2023-05-13T14:46:46;6.43;;;3.55;;
23614;SDS011;11985;49.404;7.734;2023-05-13T14:51:48;4.50;;;3.40;;
23614;SDS011;11985;49.404;7.734;2023-05-13T14:56:49;6.22;;;3.67;;
23614;SDS011;11985;49.404;7.734;2023-05-13T15:01:52;4.93;;;3.55;;
23614;SDS011;11985;49.404;7.734;2023-05-13T15:06:57;12.20;;;4.00;;
23614;SDS011;11985;49.404;7.734;2023-05-13T15:11:58;7.00;;;3.45;;
23614;SDS011;11985;49.404;7.734;2023-05-13T15:17:01;10.05;;;3.85;;
23614;SDS011;11985;49.404;7.734;2023-05-13T15:22:04;9.10;;;4.05;;
23614;SDS011;11985;49.404;7.734;2023-05-13T15:27:06;6.13;;;4.07;;
23614;SDS011;11985;49.404;7.734;2023-05-13T15:32:09;7.57;;;4.30;;
23614;SDS011;11985;49.404;7.734;2023-05-13T15:37:11;4.97;;;3.63;;
23614;SDS011;11985;49.404;7.734;2023-05-13T15:42:12;7.97;;;4.38;;
23614;SDS011;11985;49.404;7.734;2023-05-13T15:47:16;5.40;;;3.67;;
23614;SDS011;11985;49.404;7.734;2023-05-13T15:52:17;5.32;;;3.58;;
23614;SDS011;11985;49.404;7.734;2023-05-13T15:57:19;4.85;;;3.45;;
23614;SDS011;11985;49.404;7.734;2023-05-13T16:02:22;4.85;;;3.20;;
23614;SDS011;11985;49.404;7.734;2023-05-13T16:07:23;5.05;;;3.25;;
23614;SDS011;11985;49.404;7.734;2023-05-13T16:12:25;6.53;;;3.10;;
23614;SDS011;11985;49.404;7.734;2023-05-13T16:17:28;4.45;;;3.30;;
23614;SDS011;11985;49.404;7.734;2023-05-13T16:22:30;7.50;;;3.28;;
23614;SDS011;11985;49.404;7.734;2023-05-13T16:27:33;5.50;;;3.33;;
23614;SDS011;11985;49.404;7.734;2023-05-13T16:32:38;3.90;;;2.80;;
23614;SDS011;11985;49.404;7.734;2023-05-13T16:37:39;5.43;;;3.47;;
23614;SDS011;11985;49.404;7.734;2023-05-13T16:42:41;4.65;;;2.65;;
23614;SDS011;11985;49.404;7.734;2023-05-13T16:47:44;4.13;;;2.67;;
23614;SDS011;11985;49.404;7.734;2023-05-13T16:52:45;7.30;;;2.63;;
23614;SDS011;11985;49.404;7.734;2023-05-13T16:57:47;2.83;;;2.33;;
23614;SDS011;11985;49.404;7.734;2023-05-13T17:02:50;5.05;;;2.58;;
23614;SDS011;11985;49.404;7.734;2023-05-13T17:07:51;4.75;;;2.55;;
23614;SDS011;11985;49.404;7.734;2023-05-13T17:12:53;4.43;;;2.38;;
23614;SDS011;11985;49.404;7.734;2023-05-13T17:17:56;4.63;;;2.78;;
23614;SDS011;11985;49.404;7.734;2023-05-13T17:22:58;3.92;;;2.67;;
23614;SDS011;11985;49.404;7.734;2023-05-13T17:27:59;5.22;;;2.72;;
23614;SDS011;11985;49.404;7.734;2023-05-13T17:33:02;6.75;;;3.47;;
23614;SDS011;11985;49.404;7.734;2023-05-13T17:38:04;7.28;;;3.13;;
23614;SDS011;11985;49.404;7.734;2023-05-13T17:43:06;6.05;;;3.08;;
23614;SDS011;11985;49.404;7.734;2023-05-13T17:48:09;6.55;;;3.40;;
23614;SDS011;11985;49.404;7.734;2023-05-13T17:53:10;5.88;;;3.83;;
23614;SDS011;11985;49.404;7.734;2023-05-13T17:58:12;8.48;;;4.45;;
23614;SDS011;11985;49.404;7.734;2023-05-13T18:03:15;7.95;;;3.63;;
23614;SDS011;11985;49.404;7.734;2023-05-13T18:08:16;6.00;;;3.83;;
23614;SDS011;11985;49.404;7.734;2023-05-13T18:13:18;5.47;;;3.65;;
23614;SDS011;11985;49.404;7.734;2023-05-13T18:18:21;7.32;;;3.83;;
23614;SDS011;11985;49.404;7.734;2023-05-13T18:23:22;4.45;;;2.92;;
23614;SDS011;11985;49.404;7.734;2023-05-13T18:28:24;6.40;;;3.20;;
23614;SDS011;11985;49.404;7.734;2023-05-13T18:33:27;3.58;;;3.03;;
23614;SDS011;11985;49.404;7.734;2023-05-13T18:38:29;4.18;;;3.35;;
23614;SDS011;11985;49.404;7.734;2023-05-13T18:43:30;6.60;;;3.28;;
23614;SDS011;11985;49.404;7.734;2023-05-13T18:48:33;5.18;;;3.80;;
23614;SDS011;11985;49.404;7.734;2023-05-13T18:53:35;6.45;;;3.50;;
23614;SDS011;11985;49.404;7.734;2023-05-13T18:58:36;5.93;;;3.20;;
23614;SDS011;11985;49.404;7.734;2023-05-13T19:03:40;4.38;;;3.47;;
23614;SDS011;11985;49.404;7.734;2023-05-13T19:08:41;3.90;;;3.03;;
23614;SDS011;11985;49.404;7.734;2023-05-13T19:13:43;5.40;;;3.78;;
23614;SDS011;11985;49.404;7.734;2023-05-13T19:18:46;11.05;;;3.65;;
23614;SDS011;11985;49.404;7.734;2023-05-13T19:23:48;6.03;;;3.33;;
23614;SDS011;11985;49.404;7.734;2023-05-13T19:28:49;7.95;;;4.35;;
23614;SDS011;11985;49.404;7.734;2023-05-13T19:33:52;7.07;;;3.70;;
23614;SDS011;11985;49.404;7.734;2023-05-13T19:38:54;5.25;;;3.90;;
23614;SDS011;11985;49.404;7.734;2023-05-13T19:43:55;6.53;;;4.30;;
23614;SDS011;11985;49.404;7.734;2023-05-13T19:48:58;6.07;;;3.58;;
23614;SDS011;11985;49.404;7.734;2023-05-13T19:54:00;7.00;;;3.92;;
23614;SDS011;11985;49.404;7.734;2023-05-13T19:59:01;6.57;;;3.97;;
23614;SDS011;11985;49.404;7.734;2023-05-13T20:04:04;5.63;;;4.20;;
23614;SDS011;11985;49.404;7.734;2023-05-13T20:09:06;6.97;;;4.57;;
23614;SDS011;11985;49.404;7.734;2023-05-13T20:14:09;6.68;;;4.80;;
23614;SDS011;11985;49.404;7.734;2023-05-13T20:19:13;6.60;;;4.50;;
23614;SDS011;11985;49.404;7.734;2023-05-13T20:24:15;8.27;;;4.57;;
23614;SDS011;11985;49.404;7.734;2023-05-13T20:29:16;8.30;;;4.40;;
23614;SDS011;11985;49.404;7.734;2023-05-13T20:34:19;7.28;;;4.63;;
23614;SDS011;11985;49.404;7.734;2023-05-13T20:39:21;6.28;;;4.70;;
23614;SDS011;11985;49.404;7.734;2023-05-13T20:44:23;7.03;;;4.55;;
23614;SDS011;11985;49.404;7.734;2023-05-13T20:49:26;6.82;;;4.55;;
23614;SDS011;11985;49.404;7.734;2023-05-13T20:54:28;5.40;;;4.30;;
23614;SDS011;11985;49.404;7.734;2023-05-13T20:59:29;5.65;;;4.53;;
23614;SDS011;11985;49.404;7.734;2023-05-13T21:04:33;5.30;;;4.38;;
23614;SDS011;11985;49.404;7.734;2023-05-13T21:09:34;5.93;;;4.35;;
23614;SDS011;11985;49.404;7.734;2023-05-13T21:14:36;8.15;;;4.28;;
23614;SDS011;11985;49.404;7.734;2023-05-13T21:19:39;8.23;;;4.93;;
23614;SDS011;11985;49.404;7.734;2023-05-13T21:24:40;5.88;;;5.28;;
23614;SDS011;11985;49.404;7.734;2023-05-13T21:29:42;6.45;;;4.93;;
23614;SDS011;11985;49.404;7.734;2023-05-13T21:34:45;11.05;;;5.20;;
23614;SDS011;11985;49.404;7.734;2023-05-13T21:39:46;9.95;;;5.85;;
23614;SDS011;11985;49.404;7.734;2023-05-13T21:44:48;11.68;;;5.03;;
23614;SDS011;11985;49.404;7.734;2023-05-13T21:49:51;6.15;;;5.00;;
23614;SDS011;11985;49.404;7.734;2023-05-13T21:54:52;7.93;;;4.40;;
23614;SDS011;11985;49.404;7.734;2023-05-13T21:59:54;7.72;;;4.50;;
23614;SDS011;11985;49.404;7.734;2023-05-13T22:04:57;6.38;;;4.72;;
23614;SDS011;11985;49.404;7.734;2023-05-13T22:09:58;9.27;;;4.90;;
23614;SDS011;11985;49.404;7.734;2023-05-13T22:15:00;6.05;;;4.70;;
23614;SDS011;11985;49.404;7.734;2023-05-13T22:20:03;5.50;;;4.30;;
23614;SDS011;11985;49.404;7.734;2023-05-13T22:25:05;5.82;;;4.22;;
23614;SDS011;11985;49.404;7.734;2023-05-13T22:30:08;10.90;;;4.65;;
23614;SDS011;11985;49.404;7.734;2023-05-13T22:35:11;4.72;;;4.10;;
23614;SDS011;11985;49.404;7.734;2023-05-13T22:40:12;5.30;;;4.75;;
23614;SDS011;11985;49.404;7.734;2023-05-13T22:45:14;6.68;;;4.63;;
23614;SDS011;11985;49.404;7.734;2023-05-13T22:50:17;6.35;;;5.05;;
23614;SDS011;11985;49.404;7.734;2023-05-13T22:55:19;7.18;;;5.40;;
23614;SDS011;11985;49.404;7.734;2023-05-13T23:00:21;8.70;;;5.35;;
23614;SDS011;11985;49.404;7.734;2023-05-13T23:05:24;8.40;;;5.28;;
23614;SDS011;11985;49.404;7.734;2023-05-13T23:10:25;11.77;;;5.25;;
23614;SDS011;11985;49.404;7.734;2023-05-13T23:15:27;8.52;;;5.65;;
23614;SDS011;11985;49.404;7.734;2023-05-13T23:20:30;14.57;;;5.25;;
23614;SDS011;11985;49.404;7.734;2023-05-13T23:25:32;7.82;;;4.70;;
23614;SDS011;11985;49.404;7.734;2023-05-13T23:30:34;6.03;;;4.93;;
23614;SDS011;11985;49.404;7.734;2023-05-13T23:35:37;6.60;;;5.38;;
23614;SDS011;11985;49.404;7.734;2023-05-13T23:40:38;8.80;;;5.30;;
23614;SDS011;11985;49.404;7.734;2023-05-13T23:45:40;16.35;;;5.60;;
23614;SDS011;11985;49.404;7.734;2023-05-13T23:50:43;12.40;;;5.72;;
23614;SDS011;11985;49.404;7.734;2023-05-13T23:55:44;8.43;;;6.35;;
